createdAt,value
2019-05-16T00:00:54.534Z,5.29
2019-05-16T00:01:54.427Z,5.35
2019-05-16T00:02:54.320Z,5.30
2019-05-16T00:03:54.225Z,5.33
2019-05-16T00:04:54.119Z,5.37
2019-05-16T00:05:54.711Z,5.37
2019-05-16T00:06:53.924Z,5.37
2019-05-16T00:07:53.823Z,5.44
2019-05-16T00:08:53.722Z,5.35
2019-05-16T00:09:53.623Z,5.42
2019-05-16T00:10:53.540Z,5.37
2019-05-16T00:11:53.424Z,5.42
2019-05-16T00:12:53.322Z,5.42
2019-05-16T00:13:53.223Z,5.44
2019-05-16T00:14:53.123Z,5.42
2019-05-16T00:15:53.039Z,5.44
2019-05-16T00:16:52.925Z,5.45
2019-05-16T00:17:52.824Z,5.40
2019-05-16T00:18:52.730Z,5.37
2019-05-16T00:19:52.624Z,5.42
2019-05-16T00:20:52.530Z,5.40
2019-05-16T00:21:52.441Z,5.45
2019-05-16T00:22:52.328Z,5.45
2019-05-16T00:23:52.235Z,5.47
2019-05-16T00:24:52.126Z,5.44
2019-05-16T00:25:52.044Z,5.48
2019-05-16T00:26:51.929Z,5.49
2019-05-16T00:27:51.841Z,5.51
2019-05-16T00:28:51.728Z,5.48
2019-05-16T00:29:51.630Z,5.45
2019-05-16T00:30:51.533Z,5.44
2019-05-16T00:31:51.445Z,5.48
2019-05-16T00:32:51.359Z,5.49
2019-05-16T00:33:51.232Z,5.41
2019-05-16T00:34:51.133Z,5.42
2019-05-16T00:36:02.211Z,5.51
2019-05-16T00:36:50.952Z,5.47
2019-05-16T00:37:51.094Z,5.51
2019-05-16T00:38:50.734Z,5.44
2019-05-16T00:39:50.635Z,5.51
2019-05-16T00:40:50.541Z,5.42
2019-05-16T00:41:50.450Z,5.51
2019-05-16T00:42:50.337Z,5.48
2019-05-16T00:43:50.245Z,5.42
2019-05-16T00:44:50.238Z,5.47
2019-05-16T00:45:50.054Z,5.47
2019-05-16T00:46:49.950Z,5.41
2019-05-16T00:47:49.836Z,5.45
2019-05-16T00:48:49.735Z,5.45
2019-05-16T00:49:49.637Z,5.44
2019-05-16T00:50:49.538Z,5.45
2019-05-16T00:51:49.553Z,5.49
2019-05-16T00:52:49.341Z,5.45
2019-05-16T00:53:49.241Z,5.44
2019-05-16T00:54:49.140Z,5.37
2019-05-16T00:55:49.040Z,5.44
2019-05-16T00:56:48.951Z,5.44
2019-05-16T00:57:48.840Z,5.37
2019-05-16T00:58:48.842Z,5.41
2019-05-16T00:59:48.644Z,5.40
2019-05-16T01:00:50.056Z,5.30
2019-05-16T01:01:50.004Z,5.37
2019-05-16T01:02:48.691Z,5.44
2019-05-16T01:03:48.464Z,5.40
2019-05-16T01:04:48.690Z,5.44
2019-05-16T01:05:48.241Z,5.41
2019-05-16T01:06:48.476Z,5.42
2019-05-16T01:07:48.171Z,5.29
2019-05-16T01:08:48.782Z,5.32
2019-05-16T01:09:48.776Z,5.32
2019-05-16T01:10:48.484Z,5.35
2019-05-16T01:11:48.679Z,5.30
2019-05-16T01:12:48.087Z,5.32
2019-05-16T01:13:48.731Z,5.30
2019-05-16T01:14:47.820Z,5.24
2019-05-16T01:15:48.672Z,5.22
2019-05-16T01:16:48.799Z,5.23
2019-05-16T01:17:48.439Z,5.24
2019-05-16T01:18:48.594Z,5.26
2019-05-16T01:19:48.474Z,5.19
2019-05-16T01:20:48.073Z,5.30
2019-05-16T01:21:48.337Z,5.20
2019-05-16T01:22:48.809Z,5.19
2019-05-16T01:23:48.219Z,5.17
2019-05-16T01:24:46.153Z,5.19
2019-05-16T01:25:48.110Z,5.22
2019-05-16T01:26:48.372Z,5.22
2019-05-16T01:27:47.695Z,5.15
2019-05-16T01:28:45.750Z,5.22
2019-05-16T01:29:47.620Z,5.19
2019-05-16T01:30:45.554Z,5.15
2019-05-16T01:31:45.468Z,5.15
2019-05-16T01:32:45.352Z,5.19
2019-05-16T01:33:45.357Z,5.11
2019-05-16T01:34:45.154Z,5.15
2019-05-16T01:35:45.055Z,5.23
2019-05-16T01:36:44.969Z,5.14
2019-05-16T01:37:44.855Z,5.12
2019-05-16T01:38:44.756Z,5.19
2019-05-16T01:39:44.657Z,5.15
2019-05-16T01:40:44.658Z,5.15
2019-05-16T01:41:44.469Z,5.20
2019-05-16T01:42:44.355Z,5.19
2019-05-16T01:43:44.256Z,5.22
2019-05-16T01:44:44.171Z,5.11
2019-05-16T01:45:44.058Z,5.09
2019-05-16T01:46:43.970Z,5.09
2019-05-16T01:47:43.856Z,5.12
2019-05-16T01:48:43.756Z,5.20
2019-05-16T01:49:43.657Z,5.19
2019-05-16T01:50:43.559Z,5.29
2019-05-16T01:51:43.475Z,5.24
2019-05-16T01:52:43.361Z,5.30
2019-05-16T01:53:43.261Z,5.26
2019-05-16T01:54:43.870Z,5.09
2019-05-16T01:55:43.060Z,5.15
2019-05-16T01:56:42.961Z,5.12
2019-05-16T01:57:42.874Z,5.15
2019-05-16T01:58:42.762Z,5.19
2019-05-16T01:59:42.669Z,5.14
2019-05-16T02:00:52.728Z,5.15
2019-05-16T02:01:42.570Z,5.08
2019-05-16T02:02:42.379Z,5.08
2019-05-16T02:03:42.264Z,5.14
2019-05-16T02:04:42.161Z,5.06
2019-05-16T02:05:42.062Z,5.05
2019-05-16T02:06:51.660Z,5.06
2019-05-16T02:07:41.992Z,5.11
2019-05-16T02:08:41.766Z,5.09
2019-05-16T02:09:41.666Z,5.08
2019-05-16T02:10:41.565Z,5.11
2019-05-16T02:11:41.470Z,5.09
2019-05-16T02:12:41.380Z,5.12
2019-05-16T02:13:41.285Z,5.06
2019-05-16T02:14:41.166Z,5.08
2019-05-16T02:15:41.068Z,5.11
2019-05-16T02:16:40.969Z,5.09
2019-05-16T02:17:40.883Z,5.09
2019-05-16T02:18:40.771Z,5.08
2019-05-16T02:19:40.669Z,5.08
2019-05-16T02:20:40.570Z,5.11
2019-05-16T02:21:40.468Z,5.11
2019-05-16T02:22:40.385Z,5.05
2019-05-16T02:23:40.272Z,5.12
2019-05-16T02:24:40.172Z,5.05
2019-05-16T02:25:40.807Z,5.12
2019-05-16T02:26:39.969Z,5.09
2019-05-16T02:27:41.030Z,5.01
2019-05-16T02:28:43.554Z,5.05
2019-05-16T02:29:40.209Z,5.01
2019-05-16T02:30:42.200Z,5.01
2019-05-16T02:31:42.145Z,5.02
2019-05-16T02:32:41.688Z,4.97
2019-05-16T02:33:40.559Z,4.96
2019-05-16T02:34:41.634Z,4.96
2019-05-16T02:35:40.486Z,4.99
2019-05-16T02:36:40.538Z,4.99
2019-05-16T02:37:42.217Z,5.01
2019-05-16T02:38:42.005Z,5.04
2019-05-16T02:39:40.934Z,4.93
2019-05-16T02:40:41.508Z,4.99
2019-05-16T02:41:38.479Z,5.01
2019-05-16T02:42:41.756Z,4.96
2019-05-16T02:43:41.686Z,4.97
2019-05-16T02:44:40.917Z,5.02
2019-05-16T02:45:41.385Z,4.99
2019-05-16T02:46:41.623Z,4.94
2019-05-16T02:47:37.890Z,4.91
2019-05-16T02:48:40.825Z,4.96
2019-05-16T02:49:37.676Z,4.91
2019-05-16T02:50:37.576Z,4.99
2019-05-16T02:51:40.417Z,4.94
2019-05-16T02:52:37.391Z,4.88
2019-05-16T02:53:37.276Z,4.96
2019-05-16T02:54:37.176Z,4.94
2019-05-16T02:55:37.075Z,4.99
2019-05-16T02:56:36.976Z,4.91
2019-05-16T02:57:36.888Z,4.91
2019-05-16T02:58:36.782Z,4.94
2019-05-16T02:59:36.680Z,4.96
2019-05-16T03:00:36.578Z,4.97
2019-05-16T03:01:36.478Z,4.94
2019-05-16T03:02:36.391Z,4.96
2019-05-16T03:03:36.278Z,4.94
2019-05-16T03:04:39.943Z,4.97
2019-05-16T03:05:36.082Z,4.97
2019-05-16T03:06:35.985Z,4.97
2019-05-16T03:07:41.646Z,4.96
2019-05-16T03:08:35.775Z,4.91
2019-05-16T03:09:35.675Z,4.96
2019-05-16T03:10:35.606Z,4.90
2019-05-16T03:11:35.477Z,4.97
2019-05-16T03:12:35.392Z,4.90
2019-05-16T03:13:35.277Z,4.88
2019-05-16T03:14:35.186Z,4.91
2019-05-16T03:15:35.077Z,4.94
2019-05-16T03:16:34.976Z,4.96
2019-05-16T03:17:34.889Z,4.87
2019-05-16T03:18:34.777Z,4.96
2019-05-16T03:19:34.676Z,4.88
2019-05-16T03:20:34.584Z,4.90
2019-05-16T03:21:34.476Z,4.93
2019-05-16T03:22:34.391Z,4.93
2019-05-16T03:23:34.275Z,4.94
2019-05-16T03:24:34.478Z,4.93
2019-05-16T03:25:34.080Z,4.90
2019-05-16T03:26:33.976Z,4.94
2019-05-16T03:27:33.890Z,4.97
2019-05-16T03:28:33.776Z,4.94
2019-05-16T03:29:33.687Z,4.94
2019-05-16T03:30:35.383Z,4.93
2019-05-16T03:31:34.487Z,4.94
2019-05-16T03:32:34.609Z,4.93
2019-05-16T03:33:41.590Z,4.97
2019-05-16T03:34:34.426Z,4.96
2019-05-16T03:35:34.354Z,4.93
2019-05-16T03:36:34.569Z,4.87
2019-05-16T03:37:49.514Z,4.91
2019-05-16T03:38:32.790Z,4.91
2019-05-16T03:39:32.695Z,4.93
2019-05-16T03:40:32.581Z,4.93
2019-05-16T03:41:32.479Z,4.93
2019-05-16T03:42:32.378Z,4.90
2019-05-16T03:43:32.294Z,4.90
2019-05-16T03:44:32.178Z,4.84
2019-05-16T03:45:32.382Z,4.90
2019-05-16T03:46:31.980Z,4.84
2019-05-16T03:47:31.883Z,4.90
2019-05-16T03:48:31.864Z,4.90
2019-05-16T03:49:31.677Z,4.90
2019-05-16T03:50:31.575Z,4.88
2019-05-16T03:51:31.479Z,4.94
2019-05-16T03:52:31.379Z,4.91
2019-05-16T03:53:31.971Z,4.91
2019-05-16T03:54:31.647Z,4.90
2019-05-16T03:55:32.416Z,4.90
2019-05-16T03:56:30.979Z,4.90
2019-05-16T03:57:30.882Z,4.94
2019-05-16T03:58:31.141Z,4.88
2019-05-16T03:59:31.508Z,4.93
2019-05-16T04:00:31.648Z,4.91
2019-05-16T04:01:31.270Z,4.91
2019-05-16T04:02:31.103Z,4.94
2019-05-16T04:03:33.088Z,4.94
2019-05-16T04:04:30.931Z,4.88
2019-05-16T04:05:31.763Z,4.87
2019-05-16T04:06:31.166Z,4.93
2019-05-16T04:07:31.711Z,4.94
2019-05-16T04:08:31.080Z,4.86
2019-05-16T04:09:31.563Z,4.93
2019-05-16T04:10:30.984Z,4.93
2019-05-16T04:11:32.072Z,4.91
2019-05-16T04:12:30.876Z,4.96
2019-05-16T04:13:31.436Z,4.91
2019-05-16T04:14:30.950Z,4.90
2019-05-16T04:15:31.108Z,4.94
2019-05-16T04:16:31.404Z,4.88
2019-05-16T04:17:31.407Z,4.83
2019-05-16T04:18:31.855Z,4.90
2019-05-16T04:19:31.286Z,4.96
2019-05-16T04:20:30.449Z,4.94
2019-05-16T04:21:31.878Z,4.88
2019-05-16T04:22:31.526Z,4.91
2019-05-16T04:23:30.998Z,4.88
2019-05-16T04:24:31.412Z,4.90
2019-05-16T04:25:30.939Z,4.93
2019-05-16T04:26:30.570Z,4.90
2019-05-16T04:27:30.831Z,4.97
2019-05-16T04:28:27.800Z,4.90
2019-05-16T04:29:27.676Z,4.87
2019-05-16T04:30:31.033Z,4.88
2019-05-16T04:31:30.535Z,4.90
2019-05-16T04:32:27.376Z,4.94
2019-05-16T04:33:30.604Z,4.96
2019-05-16T04:34:27.176Z,4.96
2019-05-16T04:35:27.393Z,4.94
2019-05-16T04:36:26.988Z,4.91
2019-05-16T04:37:26.877Z,4.94
2019-05-16T04:38:39.086Z,4.96
2019-05-16T04:39:26.675Z,4.96
2019-05-16T04:40:26.578Z,4.94
2019-05-16T04:41:26.476Z,4.94
2019-05-16T04:42:26.484Z,4.96
2019-05-16T04:43:26.292Z,4.94
2019-05-16T04:44:26.178Z,4.94
2019-05-16T04:45:26.076Z,4.93
2019-05-16T04:46:25.974Z,5.01
2019-05-16T04:47:25.893Z,4.97
2019-05-16T04:48:25.899Z,4.96
2019-05-16T04:49:25.679Z,4.96
2019-05-16T04:50:25.576Z,4.97
2019-05-16T04:51:25.478Z,4.94
2019-05-16T04:52:25.381Z,4.94
2019-05-16T04:53:25.283Z,4.99
2019-05-16T04:54:25.191Z,5.01
2019-05-16T04:55:25.078Z,4.96
2019-05-16T04:56:24.975Z,4.97
2019-05-16T04:57:24.875Z,4.97
2019-05-16T04:58:24.780Z,4.96
2019-05-16T04:59:24.698Z,5.04
2019-05-16T05:00:24.578Z,4.87
2019-05-16T05:01:24.476Z,4.99
2019-05-16T05:02:24.377Z,4.94
2019-05-16T05:03:24.281Z,4.99
2019-05-16T05:04:24.192Z,4.96
2019-05-16T05:05:24.090Z,4.93
2019-05-16T05:06:23.976Z,4.94
2019-05-16T05:07:23.878Z,5.02
2019-05-16T05:08:23.782Z,4.94
2019-05-16T05:09:23.692Z,4.93
2019-05-16T05:10:23.575Z,4.99
2019-05-16T05:11:23.480Z,5.05
2019-05-16T05:12:23.375Z,4.97
2019-05-16T05:13:23.277Z,4.99
2019-05-16T05:14:23.191Z,4.97
2019-05-16T05:15:23.076Z,4.94
2019-05-16T05:16:22.977Z,5.02
2019-05-16T05:17:22.877Z,5.01
2019-05-16T05:18:22.775Z,5.01
2019-05-16T05:19:22.691Z,5.09
2019-05-16T05:20:22.576Z,5.02
2019-05-16T05:21:22.478Z,5.01
2019-05-16T05:22:22.375Z,5.11
2019-05-16T05:23:22.285Z,5.04
2019-05-16T05:24:22.190Z,5.15
2019-05-16T05:25:22.079Z,5.09
2019-05-16T05:26:21.976Z,5.08
2019-05-16T05:27:21.880Z,5.09
2019-05-16T05:28:21.781Z,5.19
2019-05-16T05:29:21.689Z,5.15
2019-05-16T05:30:21.575Z,5.14
2019-05-16T05:31:24.720Z,5.09
2019-05-16T05:32:21.376Z,5.11
2019-05-16T05:33:21.496Z,5.15
2019-05-16T05:34:21.189Z,5.08
2019-05-16T05:35:21.085Z,5.06
2019-05-16T05:36:21.268Z,5.06
2019-05-16T05:37:20.874Z,5.09
2019-05-16T05:38:21.573Z,5.15
2019-05-16T05:39:20.690Z,5.08
2019-05-16T05:40:20.575Z,5.12
2019-05-16T05:41:20.475Z,5.09
2019-05-16T05:42:20.377Z,5.09
2019-05-16T05:43:21.550Z,5.14
2019-05-16T05:44:20.445Z,5.05
2019-05-16T05:45:20.263Z,5.06
2019-05-16T05:46:20.543Z,5.14
2019-05-16T05:47:20.064Z,5.08
2019-05-16T05:48:21.523Z,5.06
2019-05-16T05:49:20.495Z,5.11
2019-05-16T05:50:20.160Z,5.08
2019-05-16T05:51:20.740Z,5.08
2019-05-16T05:52:20.812Z,5.11
2019-05-16T05:53:20.762Z,5.11
2019-05-16T05:54:20.372Z,5.09
2019-05-16T05:55:20.127Z,5.09
2019-05-16T05:56:19.781Z,5.06
2019-05-16T05:57:20.875Z,5.12
2019-05-16T05:58:20.598Z,5.08
2019-05-16T05:59:20.170Z,5.12
2019-05-16T06:00:21.055Z,5.11
2019-05-16T06:01:20.586Z,5.17
2019-05-16T06:02:20.145Z,5.20
2019-05-16T06:03:21.635Z,5.15
2019-05-16T06:04:19.772Z,5.09
2019-05-16T06:05:20.239Z,5.17
2019-05-16T06:06:17.979Z,5.20
2019-05-16T06:07:20.429Z,5.12
2019-05-16T06:08:19.936Z,5.09
2019-05-16T06:09:26.331Z,5.11
2019-05-16T06:10:19.761Z,5.19
2019-05-16T06:11:17.490Z,5.08
2019-05-16T06:12:17.484Z,5.14
2019-05-16T06:13:17.275Z,5.20
2019-05-16T06:14:17.200Z,5.12
2019-05-16T06:15:17.075Z,5.15
2019-05-16T06:16:16.977Z,5.15
2019-05-16T06:17:16.878Z,5.27
2019-05-16T06:18:16.779Z,5.19
2019-05-16T06:19:16.694Z,5.20
2019-05-16T06:20:16.583Z,5.12
2019-05-16T06:21:16.475Z,5.19
2019-05-16T06:22:16.377Z,5.17
2019-05-16T06:23:16.279Z,5.15
2019-05-16T06:24:16.469Z,5.20
2019-05-16T06:25:16.082Z,5.27
2019-05-16T06:26:16.078Z,5.27
2019-05-16T06:27:15.885Z,5.29
2019-05-16T06:28:15.782Z,5.32
2019-05-16T06:29:15.694Z,5.44
2019-05-16T06:30:15.576Z,5.37
2019-05-16T06:31:15.478Z,5.37
2019-05-16T06:32:15.376Z,5.45
2019-05-16T06:33:15.376Z,5.45
2019-05-16T06:34:15.477Z,5.42
2019-05-16T06:35:15.091Z,5.42
2019-05-16T06:36:14.978Z,5.37
2019-05-16T06:37:14.878Z,5.42
2019-05-16T06:38:14.780Z,5.37
2019-05-16T06:39:14.680Z,5.42
2019-05-16T06:40:14.677Z,5.40
2019-05-16T06:41:14.480Z,5.37
2019-05-16T06:42:14.381Z,5.42
2019-05-16T06:43:14.280Z,5.42
2019-05-16T06:44:14.179Z,5.47
2019-05-16T06:45:14.096Z,5.48
2019-05-16T06:46:13.979Z,5.41
2019-05-16T06:47:19.617Z,5.41
2019-05-16T06:48:13.780Z,5.52
2019-05-16T06:49:13.691Z,5.60
2019-05-16T06:50:13.594Z,5.62
2019-05-16T06:51:13.484Z,5.60
2019-05-16T06:52:13.382Z,5.58
2019-05-16T06:53:13.284Z,5.58
2019-05-16T06:54:13.289Z,5.60
2019-05-16T06:55:13.097Z,5.52
2019-05-16T06:56:12.992Z,5.52
2019-05-16T06:57:12.883Z,5.55
2019-05-16T06:58:12.786Z,5.59
2019-05-16T06:59:12.692Z,5.56
2019-05-16T07:00:12.601Z,5.56
2019-05-16T07:01:12.596Z,5.49
2019-05-16T07:02:26.271Z,5.52
2019-05-16T07:03:12.742Z,5.52
2019-05-16T07:04:12.191Z,5.52
2019-05-16T07:05:12.103Z,5.45
2019-05-16T07:06:29.894Z,5.44
2019-05-16T07:07:12.688Z,5.40
2019-05-16T07:08:11.915Z,5.45
2019-05-16T07:09:11.690Z,5.30
2019-05-16T07:10:11.604Z,5.37
2019-05-16T07:11:11.491Z,5.38
2019-05-16T07:12:11.394Z,5.37
2019-05-16T07:13:11.293Z,5.32
2019-05-16T07:14:11.202Z,5.32
2019-05-16T07:15:12.169Z,5.41
2019-05-16T07:16:10.993Z,5.30
2019-05-16T07:17:10.890Z,5.35
2019-05-16T07:18:13.049Z,5.45
2019-05-16T07:19:10.745Z,5.45
2019-05-16T07:20:10.732Z,5.33
2019-05-16T07:21:10.971Z,5.38
2019-05-16T07:22:11.201Z,5.41
2019-05-16T07:23:10.295Z,5.41
2019-05-16T07:24:10.973Z,5.38
2019-05-16T07:25:10.999Z,5.42
2019-05-16T07:26:10.083Z,5.44
2019-05-16T07:27:12.386Z,5.44
2019-05-16T07:28:10.300Z,5.49
2019-05-16T07:29:10.996Z,5.48
2019-05-16T07:30:10.581Z,5.45
2019-05-16T07:31:17.647Z,5.49
2019-05-16T07:32:09.399Z,5.42
2019-05-16T07:33:09.777Z,5.47
2019-05-16T07:34:10.786Z,5.55
2019-05-16T07:35:09.768Z,5.49
2019-05-16T07:36:09.895Z,5.52
2019-05-16T07:37:10.781Z,5.62
2019-05-16T07:38:10.685Z,5.65
2019-05-16T07:39:10.857Z,5.73
2019-05-16T07:40:19.070Z,5.69
2019-05-16T07:41:10.977Z,5.66
2019-05-16T07:42:10.963Z,5.65
2019-05-16T07:43:10.599Z,5.67
2019-05-16T07:44:10.877Z,5.60
2019-05-16T07:45:10.948Z,5.63
2019-05-16T07:46:08.016Z,5.60
2019-05-16T07:47:07.904Z,5.56
2019-05-16T07:48:07.803Z,5.59
2019-05-16T07:49:07.715Z,5.52
2019-05-16T07:50:07.604Z,5.63
2019-05-16T07:51:10.109Z,5.66
2019-05-16T07:52:09.803Z,5.55
2019-05-16T07:53:07.305Z,5.65
2019-05-16T07:54:07.210Z,5.65
2019-05-16T07:55:07.106Z,5.58
2019-05-16T07:56:07.020Z,5.59
2019-05-16T07:57:18.611Z,5.55
2019-05-16T07:58:06.808Z,5.62
2019-05-16T07:59:06.710Z,5.56
2019-05-16T08:00:06.610Z,5.49
2019-05-16T08:01:09.068Z,5.63
2019-05-16T08:02:06.411Z,5.63
2019-05-16T08:03:06.315Z,5.62
2019-05-16T08:04:06.215Z,5.65
2019-05-16T08:05:06.111Z,5.65
2019-05-16T08:06:06.036Z,5.65
2019-05-16T08:07:05.986Z,5.70
2019-05-16T08:08:05.813Z,5.73
2019-05-16T08:09:07.809Z,5.80
2019-05-16T08:10:05.615Z,5.83
2019-05-16T08:11:05.526Z,5.81
2019-05-16T08:12:06.000Z,5.96
2019-05-16T08:13:05.328Z,5.78
2019-05-16T08:14:05.216Z,5.74
2019-05-16T08:15:05.118Z,5.99
2019-05-16T08:16:05.039Z,5.99
2019-05-16T08:17:04.919Z,5.98
2019-05-16T08:18:04.820Z,5.96
2019-05-16T08:19:04.721Z,5.90
2019-05-16T08:20:04.653Z,5.73
2019-05-16T08:21:04.538Z,5.77
2019-05-16T08:22:04.426Z,5.73
2019-05-16T08:23:04.325Z,5.74
2019-05-16T08:24:07.382Z,5.65
2019-05-16T08:25:04.125Z,5.78
2019-05-16T08:26:04.072Z,5.67
2019-05-16T08:27:03.927Z,5.73
2019-05-16T08:28:03.828Z,5.80
2019-05-16T08:29:03.731Z,5.85
2019-05-16T08:30:03.632Z,5.87
2019-05-16T08:31:03.551Z,5.83
2019-05-16T08:32:03.437Z,5.83
2019-05-16T08:33:03.343Z,5.77
2019-05-16T08:34:03.234Z,5.67
2019-05-16T08:35:03.136Z,5.81
2019-05-16T08:36:08.089Z,5.80
2019-05-16T08:37:02.938Z,5.62
2019-05-16T08:38:02.841Z,5.66
2019-05-16T08:39:02.741Z,5.65
2019-05-16T08:40:02.645Z,5.74
2019-05-16T08:42:08.034Z,5.83
2019-05-16T08:43:02.340Z,5.80
2019-05-16T08:44:02.264Z,5.96
2019-05-16T08:45:02.303Z,5.96
2019-05-16T08:46:02.045Z,5.88
2019-05-16T08:47:06.170Z,5.81
2019-05-16T08:48:01.843Z,5.83
2019-05-16T08:49:01.752Z,5.78
2019-05-16T08:50:01.695Z,5.78
2019-05-16T08:50:05.526Z,5.73
2019-05-16T08:51:02.724Z,5.73
2019-05-16T08:52:01.637Z,5.70
2019-05-16T08:53:02.883Z,5.75
2019-05-16T08:54:01.666Z,5.74
2019-05-16T08:55:03.436Z,5.65
2019-05-16T08:56:02.685Z,5.62
2019-05-16T08:57:17.547Z,5.77
2019-05-16T08:58:02.485Z,5.75
2019-05-16T08:59:02.721Z,5.78
2019-05-16T09:00:01.533Z,5.80
2019-05-16T09:01:02.184Z,5.83
2019-05-16T09:02:03.239Z,5.96
2019-05-16T09:03:01.784Z,5.93
2019-05-16T09:05:04.921Z,6.03
2019-05-16T09:06:02.990Z,6.05
2019-05-16T09:07:01.993Z,6.05
2019-05-16T09:08:00.986Z,6.06
2019-05-16T09:09:15.804Z,6.02
2019-05-16T09:10:00.328Z,6.06
2019-05-16T09:10:41.404Z,6.03
2019-05-16T09:11:04.786Z,6.06
2019-05-16T09:11:59.484Z,6.06
2019-05-16T09:12:59.366Z,6.01
2019-05-16T09:13:59.271Z,5.92
2019-05-16T09:14:59.572Z,5.98
2019-05-16T09:15:59.074Z,5.98
2019-05-16T09:16:58.984Z,5.92
2019-05-16T09:17:58.876Z,5.93
2019-05-16T09:18:58.773Z,5.98
2019-05-16T09:19:58.674Z,6.03
2019-05-16T09:20:58.575Z,6.01
2019-05-16T09:21:58.493Z,6.02
2019-05-16T09:22:58.697Z,6.01
2019-05-16T09:23:58.276Z,6.01
2019-05-16T09:24:58.181Z,6.06
2019-05-16T09:26:07.064Z,6.05
2019-05-16T09:26:58.112Z,5.98
2019-05-16T09:27:58.009Z,5.93
2019-05-16T09:28:57.782Z,5.93
2019-05-16T09:29:57.684Z,5.96
2019-05-16T09:30:57.936Z,5.96
2019-05-16T09:32:09.056Z,6.01
2019-05-16T09:32:58.826Z,5.95
2019-05-16T09:33:57.294Z,6.06
2019-05-16T09:34:57.749Z,6.02
2019-05-16T09:35:57.622Z,6.06
2019-05-16T09:37:00.598Z,6.14
2019-05-16T09:37:57.562Z,6.14
2019-05-16T09:38:57.748Z,6.19
2019-05-16T09:39:57.218Z,6.27
2019-05-16T09:40:57.116Z,6.27
2019-05-16T09:41:58.922Z,6.27
2019-05-16T09:42:56.927Z,6.30
2019-05-16T09:43:58.850Z,6.24
2019-05-16T09:44:57.705Z,6.20
2019-05-16T09:46:03.214Z,6.20
2019-05-16T09:46:56.974Z,6.14
2019-05-16T09:47:57.339Z,6.17
2019-05-16T09:49:12.993Z,6.17
2019-05-16T09:49:57.943Z,6.13
2019-05-16T09:50:57.716Z,6.13
2019-05-16T09:51:56.811Z,6.10
2019-05-16T09:52:56.572Z,6.14
2019-05-16T09:53:56.724Z,6.05
2019-05-16T09:54:57.519Z,6.20
2019-05-16T09:55:57.322Z,6.19
2019-05-16T09:56:57.006Z,6.11
2019-05-16T09:57:58.190Z,6.21
2019-05-16T09:58:57.234Z,6.19
2019-05-16T09:59:57.053Z,6.16
2019-05-16T10:00:57.309Z,6.16
2019-05-16T10:01:56.929Z,6.25
2019-05-16T10:02:54.547Z,6.21
2019-05-16T10:03:54.325Z,6.27
2019-05-16T10:04:54.229Z,6.32
2019-05-16T10:05:56.941Z,6.35
2019-05-16T10:06:54.030Z,6.40
2019-05-16T10:07:53.949Z,6.35
2019-05-16T10:08:53.833Z,6.33
2019-05-16T10:09:53.854Z,6.39
2019-05-16T10:10:53.637Z,6.36
2019-05-16T10:12:06.994Z,6.45
2019-05-16T10:12:53.455Z,6.45
2019-05-16T10:13:53.341Z,6.54
2019-05-16T10:14:53.245Z,6.39
2019-05-16T10:15:53.145Z,6.33
2019-05-16T10:16:53.154Z,6.27
2019-05-16T10:17:52.961Z,6.24
2019-05-16T10:18:52.845Z,6.21
2019-05-16T10:19:52.749Z,6.10
2019-05-16T10:20:52.652Z,6.11
2019-05-16T10:21:52.552Z,6.16
2019-05-16T10:22:52.575Z,6.20
2019-05-16T10:23:52.361Z,6.21
2019-05-16T10:24:52.260Z,6.28
2019-05-16T10:25:52.159Z,6.36
2019-05-16T10:26:54.009Z,6.32
2019-05-16T10:27:51.976Z,6.43
2019-05-16T10:28:51.864Z,6.45
2019-05-16T10:29:51.768Z,6.32
2019-05-16T10:30:51.779Z,6.32
2019-05-16T10:31:53.230Z,6.38
2019-05-16T10:32:51.485Z,6.38
2019-05-16T10:33:51.373Z,6.39
2019-05-16T10:34:51.272Z,6.36
2019-05-16T10:35:51.174Z,6.33
2019-05-16T10:36:51.198Z,6.28
2019-05-16T10:37:50.992Z,6.36
2019-05-16T10:38:50.895Z,6.38
2019-05-16T10:39:50.781Z,6.48
2019-05-16T10:40:50.735Z,6.39
2019-05-16T10:41:50.582Z,6.40
2019-05-16T10:42:50.487Z,6.40
2019-05-16T10:43:50.397Z,6.42
2019-05-16T10:44:50.286Z,6.51
2019-05-16T10:45:50.190Z,6.55
2019-05-16T10:46:50.102Z,6.63
2019-05-16T10:47:49.995Z,6.58
2019-05-16T10:48:49.908Z,6.63
2019-05-16T10:49:49.798Z,6.64
2019-05-16T10:50:49.756Z,6.63
2019-05-16T10:51:49.630Z,6.68
2019-05-16T10:53:12.992Z,6.55
2019-05-16T10:54:05.771Z,6.65
2019-05-16T10:54:57.580Z,6.71
2019-05-16T10:55:49.204Z,6.57
2019-05-16T10:56:49.202Z,6.69
2019-05-16T10:57:49.105Z,6.63
2019-05-16T10:59:14.654Z,6.61
2019-05-16T11:00:05.156Z,6.53
2019-05-16T11:01:10.945Z,6.51
2019-05-16T11:01:48.617Z,6.53
2019-05-16T11:02:48.548Z,6.57
2019-05-16T11:03:49.181Z,6.51
2019-05-16T11:05:00.122Z,6.60
2019-05-16T11:06:01.393Z,6.55
2019-05-16T11:06:48.123Z,6.48
2019-05-16T11:07:50.611Z,6.53
2019-05-16T11:08:47.939Z,6.51
2019-05-16T11:09:58.336Z,6.63
2019-05-16T11:10:47.806Z,6.64
2019-05-16T11:11:47.835Z,6.58
2019-05-16T11:12:54.128Z,6.65
2019-05-16T11:13:50.571Z,6.73
2019-05-16T11:14:47.904Z,6.73
2019-05-16T11:15:47.238Z,6.71
2019-05-16T11:16:47.480Z,6.69
2019-05-16T11:17:47.042Z,6.73
2019-05-16T11:18:46.959Z,6.69
2019-05-16T11:19:46.845Z,6.69
2019-05-16T11:20:49.285Z,6.71
2019-05-16T11:21:46.961Z,6.61
2019-05-16T11:22:47.740Z,6.61
2019-05-16T11:23:47.115Z,6.73
2019-05-16T11:24:47.100Z,6.72
2019-05-16T11:25:47.146Z,6.75
2019-05-16T11:26:47.342Z,6.93
2019-05-16T11:27:46.879Z,6.96
2019-05-16T11:28:48.635Z,6.96
2019-05-16T11:29:47.288Z,6.87
2019-05-16T11:30:47.630Z,6.94
2019-05-16T11:31:46.772Z,6.90
2019-05-16T11:32:46.918Z,6.94
2019-05-16T11:33:47.756Z,6.87
2019-05-16T11:34:47.778Z,6.91
2019-05-16T11:35:47.624Z,6.90
2019-05-16T11:36:47.561Z,6.91
2019-05-16T11:37:47.138Z,6.96
2019-05-16T11:38:47.474Z,6.87
2019-05-16T11:39:46.594Z,6.91
2019-05-16T11:40:47.289Z,6.90
2019-05-16T11:41:47.334Z,6.93
2019-05-16T11:42:47.050Z,6.97
2019-05-16T11:43:44.509Z,7.00
2019-05-16T11:44:47.606Z,6.93
2019-05-16T11:45:46.711Z,6.91
2019-05-16T11:46:44.200Z,6.94
2019-05-16T11:47:46.840Z,7.12
2019-05-16T11:48:44.006Z,7.07
2019-05-16T11:49:43.927Z,7.12
2019-05-16T11:50:43.824Z,7.01
2019-05-16T11:51:43.719Z,7.05
2019-05-16T11:52:43.614Z,7.08
2019-05-16T11:53:43.660Z,7.15
2019-05-16T11:54:43.422Z,7.19
2019-05-16T11:55:52.114Z,7.19
2019-05-16T11:56:43.223Z,7.21
2019-05-16T11:57:43.126Z,7.19
2019-05-16T11:58:43.032Z,7.30
2019-05-16T11:59:42.946Z,7.18
2019-05-16T12:00:42.935Z,7.33
2019-05-16T12:01:42.735Z,7.30
2019-05-16T12:02:43.107Z,7.24
2019-05-16T12:03:42.542Z,7.26
2019-05-16T12:04:42.456Z,7.34
2019-05-16T12:05:42.348Z,7.41
2019-05-16T12:06:42.250Z,7.47
2019-05-16T12:07:44.378Z,7.48
2019-05-16T12:08:42.053Z,7.47
2019-05-16T12:09:47.025Z,7.36
2019-05-16T12:10:41.860Z,7.48
2019-05-16T12:11:41.760Z,7.51
2019-05-16T12:12:41.663Z,7.45
2019-05-16T12:13:41.568Z,7.62
2019-05-16T12:14:41.611Z,7.63
2019-05-16T12:15:41.372Z,7.55
2019-05-16T12:16:41.275Z,7.62
2019-05-16T12:17:41.198Z,7.70
2019-05-16T12:18:41.081Z,7.70
2019-05-16T12:19:43.979Z,7.71
2019-05-16T12:20:40.890Z,7.77
2019-05-16T12:21:40.891Z,7.73
2019-05-16T12:22:40.693Z,7.60
2019-05-16T12:23:40.595Z,7.55
2019-05-16T12:24:41.490Z,7.55
2019-05-16T12:25:40.399Z,7.63
2019-05-16T12:26:40.311Z,7.47
2019-05-16T12:27:42.094Z,7.54
2019-05-16T12:28:40.219Z,7.51
2019-05-16T12:29:40.023Z,7.52
2019-05-16T12:30:40.471Z,7.48
2019-05-16T12:31:54.129Z,7.41
2019-05-16T12:32:39.720Z,7.54
2019-05-16T12:33:39.628Z,7.48
2019-05-16T12:34:39.539Z,7.57
2019-05-16T12:35:39.530Z,7.39
2019-05-16T12:36:39.338Z,7.34
2019-05-16T12:37:39.233Z,7.34
2019-05-16T12:38:39.134Z,7.41
2019-05-16T12:39:39.053Z,7.41
2019-05-16T12:40:38.940Z,7.41
2019-05-16T12:41:41.108Z,7.44
2019-05-16T12:42:38.858Z,7.44
2019-05-16T12:43:48.969Z,7.50
2019-05-16T12:44:38.567Z,7.39
2019-05-16T12:45:38.856Z,7.34
2019-05-16T12:46:38.361Z,7.32
2019-05-16T12:47:38.262Z,7.30
2019-05-16T12:48:38.163Z,7.23
2019-05-16T12:49:38.082Z,7.21
2019-05-16T12:50:38.909Z,7.14
2019-05-16T12:51:37.872Z,7.15
2019-05-16T12:52:38.390Z,7.08
2019-05-16T12:53:37.676Z,7.16
2019-05-16T12:54:37.607Z,7.12
2019-05-16T12:55:37.479Z,7.07
2019-05-16T12:56:37.842Z,7.11
2019-05-16T12:57:38.334Z,7.18
2019-05-16T12:58:41.407Z,7.19
2019-05-16T12:59:37.402Z,7.24
2019-05-16T13:00:37.276Z,7.08
2019-05-16T13:01:38.525Z,7.09
2019-05-16T13:02:37.795Z,7.15
2019-05-16T13:03:37.767Z,7.15
2019-05-16T13:04:37.776Z,7.37
2019-05-16T13:05:37.557Z,7.30
2019-05-16T13:06:37.082Z,7.33
2019-05-16T13:07:37.662Z,7.30
2019-05-16T13:08:37.526Z,7.18
2019-05-16T13:09:37.096Z,7.27
2019-05-16T13:10:37.937Z,7.18
2019-05-16T13:11:37.785Z,7.18
2019-05-16T13:12:37.777Z,7.15
2019-05-16T13:13:37.513Z,7.09
2019-05-16T13:14:39.998Z,7.19
2019-05-16T13:15:37.837Z,7.29
2019-05-16T13:16:37.462Z,7.26
2019-05-16T13:17:37.335Z,7.32